createdAt,value
2019-03-25T00:00:46.277Z,4.60
2019-03-25T00:03:15.851Z,4.35
2019-03-25T00:05:45.442Z,4.70
2019-03-25T00:08:15.133Z,4.37
2019-03-25T00:10:44.719Z,4.70
2019-03-25T00:13:14.324Z,4.37
2019-03-25T00:15:43.941Z,3.87
2019-03-25T00:18:13.652Z,4.33
2019-03-25T00:20:43.239Z,5.05
2019-03-25T00:23:12.835Z,4.58
2019-03-25T00:25:42.464Z,3.75
2019-03-25T00:28:13.754Z,4.20
2019-03-25T00:30:43.286Z,3.98
2019-03-25T00:33:12.940Z,4.60
2019-03-25T00:35:42.531Z,4.30
2019-03-25T00:38:12.155Z,3.80
2019-03-25T00:40:41.745Z,4.50
2019-03-25T00:43:11.367Z,4.67
2019-03-25T00:45:45.681Z,4.58
2019-03-25T00:48:15.325Z,5.03
2019-03-25T00:50:44.984Z,5.58
2019-03-25T00:53:14.725Z,4.60
2019-03-25T00:55:45.922Z,4.42
2019-03-25T00:58:15.703Z,4.85
2019-03-25T01:00:45.439Z,4.25
2019-03-25T01:03:15.099Z,4.60
2019-03-25T01:05:44.707Z,4.97
2019-03-25T01:08:14.471Z,5.03
2019-03-25T01:10:44.060Z,5.20
2019-03-25T01:13:13.696Z,4.58
2019-03-25T01:15:43.366Z,4.78
2019-03-25T01:18:17.170Z,5.25
2019-03-25T01:20:47.341Z,5.05
2019-03-25T01:23:19.840Z,5.55
2019-03-25T01:25:49.455Z,5.65
2019-03-25T01:28:19.095Z,5.10
2019-03-25T01:30:48.696Z,5.15
2019-03-25T01:33:19.000Z,5.60
2019-03-25T01:35:48.636Z,6.00
2019-03-25T01:38:18.320Z,5.15
2019-03-25T01:40:47.894Z,5.53
2019-03-25T01:43:17.968Z,6.40
2019-03-25T01:45:47.555Z,5.90
2019-03-25T01:48:18.344Z,5.37
2019-03-25T01:50:49.801Z,5.85
2019-03-25T01:53:19.318Z,4.90
2019-03-25T01:55:53.521Z,5.85
2019-03-25T01:58:23.117Z,5.33
2019-03-25T02:00:52.729Z,6.03
2019-03-25T02:03:22.316Z,5.37
2019-03-25T02:05:52.906Z,6.10
2019-03-25T02:08:22.507Z,5.75
2019-03-25T02:10:52.140Z,6.12
2019-03-25T02:13:21.723Z,5.70
2019-03-25T02:15:51.423Z,6.28
2019-03-25T02:18:21.036Z,6.35
2019-03-25T02:20:50.807Z,5.78
2019-03-25T02:23:20.441Z,6.62
2019-03-25T02:25:50.052Z,6.03
2019-03-25T02:28:20.751Z,6.25
2019-03-25T02:30:50.365Z,6.17
2019-03-25T02:33:19.970Z,6.53
2019-03-25T02:35:49.584Z,6.00
2019-03-25T02:38:21.916Z,6.28
2019-03-25T02:40:51.536Z,6.50
2019-03-25T02:43:22.755Z,6.37
2019-03-25T02:45:56.402Z,6.78
2019-03-25T02:48:27.632Z,6.83
2019-03-25T02:50:57.235Z,6.80
2019-03-25T02:53:26.849Z,6.65
2019-03-25T02:55:56.458Z,7.80
2019-03-25T02:58:26.063Z,6.95
2019-03-25T03:00:55.698Z,7.28
2019-03-25T03:03:25.283Z,8.00
2019-03-25T03:05:54.884Z,6.58
2019-03-25T03:08:24.561Z,6.47
2019-03-25T03:10:54.170Z,6.35
2019-03-25T03:13:26.519Z,7.25
2019-03-25T03:15:56.075Z,7.00
2019-03-25T03:18:25.697Z,6.80
2019-03-25T03:20:58.324Z,7.20
2019-03-25T03:23:27.938Z,6.78
2019-03-25T03:26:00.467Z,6.65
2019-03-25T03:28:30.656Z,6.47
2019-03-25T03:31:00.266Z,7.10
2019-03-25T03:33:29.859Z,6.53
2019-03-25T03:35:59.486Z,6.80
2019-03-25T03:38:29.081Z,6.83
2019-03-25T03:40:58.751Z,5.65
2019-03-25T03:43:29.894Z,6.37
2019-03-25T03:45:59.575Z,6.05
2019-03-25T03:48:29.199Z,6.17
2019-03-25T03:51:01.828Z,5.85
2019-03-25T03:53:31.561Z,6.15
2019-03-25T03:56:12.635Z,5.58
2019-03-25T03:58:35.444Z,5.75
2019-03-25T04:01:05.124Z,5.85
2019-03-25T04:03:34.725Z,5.35
2019-03-25T04:06:05.867Z,6.12
2019-03-25T04:08:35.506Z,5.50
2019-03-25T04:11:05.328Z,4.67
2019-03-25T04:13:37.871Z,5.45
2019-03-25T04:16:10.348Z,4.55
2019-03-25T04:18:42.708Z,5.30
2019-03-25T04:21:12.276Z,5.47
2019-03-25T04:23:42.163Z,5.37
2019-03-25T04:26:27.253Z,5.20
2019-03-25T04:28:45.228Z,4.70
2019-03-25T04:31:14.862Z,4.70
2019-03-25T04:33:44.439Z,4.55
2019-03-25T04:36:14.133Z,4.55
2019-03-25T04:38:43.767Z,4.37
2019-03-25T04:41:13.361Z,4.35
2019-03-25T04:43:44.159Z,4.75
2019-03-25T04:46:13.745Z,4.22
2019-03-25T04:48:43.360Z,5.05
2019-03-25T04:51:13.015Z,4.58
2019-03-25T04:53:42.619Z,4.25
2019-03-25T04:56:12.234Z,4.50
2019-03-25T04:58:41.895Z,4.00
2019-03-25T05:01:11.511Z,3.85
2019-03-25T05:03:41.111Z,4.10
2019-03-25T05:06:11.871Z,4.20
2019-03-25T05:08:41.434Z,4.10
2019-03-25T05:11:11.037Z,4.30
2019-03-25T05:13:40.630Z,3.50
2019-03-25T05:16:10.234Z,4.15
2019-03-25T05:18:39.819Z,3.98
2019-03-25T05:21:09.427Z,3.92
2019-03-25T05:23:39.027Z,3.85
2019-03-25T05:26:08.635Z,4.37
2019-03-25T05:28:38.254Z,3.42
2019-03-25T05:31:07.875Z,3.40
2019-03-25T05:33:37.475Z,3.20
2019-03-25T05:36:07.061Z,3.02
2019-03-25T05:38:37.157Z,3.05
2019-03-25T05:41:06.830Z,3.33
2019-03-25T05:43:37.631Z,3.25
2019-03-25T05:46:08.783Z,4.22
2019-03-25T05:48:38.381Z,3.75
2019-03-25T05:51:07.982Z,3.47
2019-03-25T05:53:37.617Z,3.67
2019-03-25T05:56:07.210Z,5.05
2019-03-25T05:58:36.892Z,3.47
2019-03-25T06:01:09.308Z,4.30
2019-03-25T06:03:38.931Z,3.60
2019-03-25T06:06:11.254Z,4.30
2019-03-25T06:08:40.905Z,3.67
2019-03-25T06:11:10.639Z,3.83
2019-03-25T06:13:40.238Z,3.83
2019-03-25T06:16:11.414Z,3.67
2019-03-25T06:18:41.017Z,4.33
2019-03-25T06:21:10.629Z,3.20
2019-03-25T06:23:40.357Z,4.25
2019-03-25T06:26:09.961Z,3.50
2019-03-25T06:28:39.627Z,3.87
2019-03-25T06:31:09.206Z,3.10
2019-03-25T06:33:38.968Z,4.45
2019-03-25T06:36:08.644Z,3.75
2019-03-25T06:38:38.399Z,3.50
2019-03-25T06:41:08.075Z,3.90
2019-03-25T06:43:37.670Z,3.58
2019-03-25T06:46:07.286Z,3.42
2019-03-25T06:48:36.953Z,4.70
2019-03-25T06:51:06.551Z,4.90
2019-03-25T06:53:36.168Z,3.77
2019-03-25T06:56:07.829Z,3.42
2019-03-25T06:58:37.490Z,3.55
2019-03-25T07:01:07.165Z,4.00
2019-03-25T07:03:36.738Z,3.50
2019-03-25T07:06:06.355Z,3.60
2019-03-25T07:08:36.079Z,4.62
2019-03-25T07:11:05.871Z,3.80
2019-03-25T07:13:35.419Z,3.90
2019-03-25T07:16:05.190Z,3.10
2019-03-25T07:18:34.792Z,3.17
2019-03-25T07:21:04.462Z,3.47
2019-03-25T07:23:34.160Z,4.22
2019-03-25T07:26:03.823Z,4.58
2019-03-25T07:28:33.440Z,4.03
2019-03-25T07:31:03.611Z,3.83
2019-03-25T07:33:33.360Z,3.75
2019-03-25T07:36:03.184Z,4.53
2019-03-25T07:38:32.800Z,4.00
2019-03-25T07:41:02.407Z,3.83
2019-03-25T07:43:32.097Z,3.33
2019-03-25T07:46:04.146Z,3.50
2019-03-25T07:48:33.744Z,3.55
2019-03-25T07:51:03.435Z,3.72
2019-03-25T07:53:33.028Z,3.70
2019-03-25T07:56:02.733Z,3.98
2019-03-25T07:58:32.316Z,4.10
2019-03-25T08:01:03.053Z,4.05
2019-03-25T08:03:32.641Z,4.15
2019-03-25T08:06:03.793Z,4.03
2019-03-25T08:08:33.415Z,3.67
2019-03-25T08:11:03.783Z,3.30
2019-03-25T08:13:33.398Z,3.80
2019-03-25T08:16:05.033Z,4.55
2019-03-25T08:18:34.771Z,4.40
2019-03-25T08:21:04.542Z,3.20
2019-03-25T08:23:34.356Z,3.90
2019-03-25T08:26:04.133Z,3.90
2019-03-25T08:28:33.815Z,3.70
2019-03-25T08:31:03.641Z,3.60
2019-03-25T08:33:33.313Z,3.65
2019-03-25T08:36:03.741Z,3.37
2019-03-25T08:38:33.458Z,3.25
2019-03-25T08:41:03.249Z,3.60
2019-03-25T08:43:33.763Z,3.62
2019-03-25T08:46:03.423Z,3.20
2019-03-25T08:48:33.016Z,2.62
2019-03-25T08:51:02.986Z,2.95
2019-03-25T08:53:32.610Z,4.05
2019-03-25T08:56:04.270Z,2.87
2019-03-25T08:58:33.987Z,2.67
2019-03-25T09:01:03.620Z,2.45
2019-03-25T09:03:33.275Z,3.37
2019-03-25T09:06:02.970Z,2.33
2019-03-25T09:08:32.663Z,1.92
2019-03-25T09:11:06.960Z,1.90
2019-03-25T09:13:35.749Z,2.17
2019-03-25T09:16:05.422Z,1.55
2019-03-25T09:18:35.255Z,2.50
2019-03-25T09:21:04.974Z,2.00
2019-03-25T09:23:34.622Z,2.70
2019-03-25T09:26:04.576Z,2.50
2019-03-25T09:28:34.236Z,2.95
2019-03-25T09:31:09.858Z,3.42
2019-03-25T09:33:39.709Z,2.65
2019-03-25T09:36:09.291Z,3.12
2019-03-25T09:38:38.934Z,3.12
2019-03-25T09:41:08.897Z,2.70
2019-03-25T09:43:38.701Z,3.02
2019-03-25T09:46:08.330Z,3.25
2019-03-25T09:48:38.011Z,3.83
2019-03-25T09:51:07.795Z,3.40
2019-03-25T09:53:37.361Z,3.67
2019-03-25T09:56:07.071Z,3.45
2019-03-25T09:58:36.819Z,3.70
2019-03-25T10:01:06.468Z,3.55
2019-03-25T10:03:36.078Z,3.42
2019-03-25T10:06:05.839Z,3.02
2019-03-25T10:08:35.562Z,3.87
2019-03-25T10:11:05.378Z,4.22
2019-03-25T10:13:34.980Z,3.87
2019-03-25T10:16:04.753Z,3.52
2019-03-25T10:18:34.366Z,3.98
2019-03-25T10:21:04.049Z,5.62
2019-03-25T10:23:33.711Z,3.92
2019-03-25T10:26:03.770Z,3.77
2019-03-25T10:28:33.391Z,2.95
2019-03-25T10:31:03.111Z,3.50
2019-03-25T10:33:32.848Z,3.50
2019-03-25T10:36:02.944Z,3.83
2019-03-25T10:38:32.567Z,3.70
2019-03-25T10:41:02.956Z,3.30
2019-03-25T10:43:32.542Z,4.10
2019-03-25T10:46:02.162Z,3.65
2019-03-25T10:48:32.195Z,3.80
2019-03-25T10:51:01.808Z,3.58
2019-03-25T10:53:31.471Z,4.72
2019-03-25T10:56:01.093Z,3.33
2019-03-25T10:58:30.878Z,3.35
2019-03-25T11:01:00.542Z,3.25
2019-03-25T11:03:30.258Z,2.62
2019-03-25T11:05:59.913Z,2.75
2019-03-25T11:08:29.543Z,2.30
2019-03-25T11:10:59.134Z,3.30
2019-03-25T11:13:28.817Z,3.75
2019-03-25T11:15:58.486Z,3.58
2019-03-25T11:18:28.387Z,2.72
2019-03-25T11:20:58.338Z,3.35
2019-03-25T11:23:28.213Z,2.50
2019-03-25T11:25:57.916Z,3.42
2019-03-25T11:28:28.995Z,3.20
2019-03-25T11:30:58.951Z,3.35
2019-03-25T11:33:28.630Z,2.47
2019-03-25T11:35:58.693Z,2.37
2019-03-25T11:38:28.418Z,2.92
2019-03-25T11:40:58.027Z,3.27
2019-03-25T11:43:27.711Z,3.50
2019-03-25T11:45:57.533Z,3.22
2019-03-25T11:48:27.238Z,4.10
2019-03-25T11:50:56.861Z,3.35
2019-03-25T11:53:26.523Z,3.40
2019-03-25T11:55:56.156Z,4.70
2019-03-25T11:58:25.862Z,3.37
2019-03-25T12:00:55.606Z,2.95
2019-03-25T12:03:25.215Z,2.42
2019-03-25T12:05:54.843Z,2.90
2019-03-25T12:08:24.463Z,2.27
2019-03-25T12:10:54.147Z,1.62
2019-03-25T12:13:23.760Z,2.20
2019-03-25T12:15:53.367Z,2.83
2019-03-25T12:18:23.051Z,3.05
2019-03-25T12:20:52.627Z,2.83
2019-03-25T12:23:26.265Z,3.67
2019-03-25T12:25:53.626Z,2.83
2019-03-25T12:28:23.222Z,3.30
2019-03-25T12:30:52.925Z,2.80
2019-03-25T12:33:22.757Z,2.85
2019-03-25T12:35:52.360Z,3.10
2019-03-25T12:38:22.077Z,2.87
2019-03-25T12:40:53.344Z,3.27
2019-03-25T12:43:22.972Z,2.08
2019-03-25T12:45:52.926Z,3.17
2019-03-25T12:48:22.592Z,4.05
2019-03-25T12:50:52.507Z,2.67
2019-03-25T12:53:22.153Z,2.85
2019-03-25T12:55:51.867Z,2.45
2019-03-25T12:58:21.701Z,2.00
2019-03-25T13:00:51.335Z,1.98
2019-03-25T13:03:21.080Z,3.30
2019-03-25T13:05:50.687Z,2.60
2019-03-25T13:08:20.276Z,3.90
2019-03-25T13:10:50.386Z,4.47
2019-03-25T13:13:20.052Z,2.52
2019-03-25T13:15:49.678Z,2.22
2019-03-25T13:18:19.435Z,2.33
2019-03-25T13:20:49.099Z,2.60
2019-03-25T13:23:18.813Z,2.65
2019-03-25T13:25:48.462Z,2.87
2019-03-25T13:28:18.127Z,3.05
2019-03-25T13:30:47.757Z,2.55
2019-03-25T13:33:17.434Z,3.33
2019-03-25T13:35:47.144Z,2.90
2019-03-25T13:38:16.832Z,4.20
2019-03-25T13:40:46.439Z,2.95
2019-03-25T13:43:16.133Z,3.10
2019-03-25T13:45:45.804Z,2.75
2019-03-25T13:48:15.495Z,2.47
2019-03-25T13:50:45.081Z,3.87
2019-03-25T13:53:14.842Z,2.80
2019-03-25T13:55:44.562Z,2.90
2019-03-25T13:58:14.128Z,2.80
2019-03-25T14:00:43.828Z,3.20
2019-03-25T14:03:13.467Z,3.58
2019-03-25T14:05:43.190Z,2.42
2019-03-25T14:08:12.850Z,3.05
2019-03-25T14:10:42.463Z,3.12
2019-03-25T14:13:12.079Z,3.90
2019-03-25T14:15:41.866Z,2.92
2019-03-25T14:18:11.574Z,2.27
2019-03-25T14:20:41.182Z,1.70
2019-03-25T14:23:10.878Z,2.05
2019-03-25T14:25:40.463Z,2.67
2019-03-25T14:28:10.152Z,1.85
2019-03-25T14:30:39.758Z,2.90
2019-03-25T14:33:09.673Z,2.12
2019-03-25T14:35:39.956Z,3.08
2019-03-25T14:38:11.339Z,2.17
2019-03-25T14:40:42.947Z,3.05
2019-03-25T14:43:14.139Z,2.45
2019-03-25T14:45:45.278Z,3.22
2019-03-25T14:48:17.085Z,2.45
2019-03-25T14:50:49.395Z,2.45
2019-03-25T14:53:20.709Z,3.07
2019-03-25T14:55:51.979Z,2.27
2019-03-25T14:58:23.568Z,3.08
2019-03-25T15:00:55.096Z,2.95
2019-03-25T15:03:25.250Z,3.33
2019-03-25T15:05:56.173Z,2.62
2019-03-25T15:08:25.867Z,2.42
2019-03-25T15:10:55.472Z,2.80
2019-03-25T15:13:25.161Z,2.33
2019-03-25T15:15:54.778Z,3.55
2019-03-25T15:18:24.387Z,3.05
2019-03-25T15:20:54.003Z,2.25
2019-03-25T15:23:23.612Z,3.20
2019-03-25T15:25:53.254Z,3.95
2019-03-25T15:28:22.928Z,3.42
2019-03-25T15:30:52.514Z,2.05
2019-03-25T15:33:22.128Z,2.50
2019-03-25T15:35:51.805Z,2.75
2019-03-25T15:38:21.413Z,2.75
2019-03-25T15:40:51.112Z,3.60
2019-03-25T15:43:20.768Z,2.35
2019-03-25T15:45:52.052Z,2.62
2019-03-25T15:48:21.675Z,3.02
2019-03-25T15:50:52.584Z,2.37
2019-03-25T15:53:22.194Z,2.80
2019-03-25T15:55:51.801Z,2.75
2019-03-25T15:58:26.146Z,3.05
2019-03-25T16:00:52.698Z,3.45
2019-03-25T16:03:22.482Z,3.55
2019-03-25T16:05:52.830Z,3.55
2019-03-25T16:08:22.536Z,2.60
2019-03-25T16:10:52.221Z,3.58
2019-03-25T16:13:21.883Z,2.75
2019-03-25T16:15:51.861Z,2.60
2019-03-25T16:18:38.627Z,2.60
2019-03-25T16:21:08.701Z,2.95
2019-03-25T16:23:38.302Z,3.70
2019-03-25T16:26:07.964Z,2.55
2019-03-25T16:28:37.766Z,3.10
2019-03-25T16:31:07.445Z,2.80
2019-03-25T16:33:37.031Z,2.85
2019-03-25T16:36:07.653Z,2.77
2019-03-25T16:38:37.740Z,3.10
2019-03-25T16:41:07.326Z,2.98
2019-03-25T16:43:37.014Z,3.27
2019-03-25T16:46:06.618Z,3.05
2019-03-25T16:48:36.308Z,3.80
2019-03-25T16:51:07.404Z,3.37
2019-03-25T16:53:37.114Z,3.05
2019-03-25T16:56:06.819Z,3.30
2019-03-25T16:58:36.445Z,3.00
2019-03-25T17:01:10.183Z,3.72
2019-03-25T17:03:39.107Z,3.67
2019-03-25T17:06:08.744Z,3.37
2019-03-25T17:08:38.346Z,3.27
2019-03-25T17:11:08.002Z,4.35
2019-03-25T17:13:37.577Z,4.53
2019-03-25T17:16:07.266Z,3.22
2019-03-25T17:18:36.907Z,4.08
2019-03-25T17:21:06.577Z,4.05
2019-03-25T17:23:36.269Z,3.60
2019-03-25T17:26:05.940Z,4.33
2019-03-25T17:28:35.547Z,2.98
2019-03-25T17:31:05.187Z,4.47
2019-03-25T17:33:34.871Z,3.95
2019-03-25T17:36:04.779Z,3.40
2019-03-25T17:38:34.402Z,4.22
2019-03-25T17:41:04.123Z,3.35
2019-03-25T17:43:33.711Z,12.50
2019-03-25T17:46:03.475Z,3.85
2019-03-25T17:48:33.069Z,4.37
2019-03-25T17:51:02.684Z,5.17
2019-03-25T17:53:32.276Z,4.65
2019-03-25T17:56:04.163Z,4.58
2019-03-25T17:58:33.774Z,4.65
2019-03-25T18:01:06.043Z,4.55
2019-03-25T18:03:35.657Z,4.08
2019-03-25T18:06:05.343Z,4.17
2019-03-25T18:08:34.929Z,3.83
2019-03-25T18:11:05.399Z,4.75
2019-03-25T18:13:35.009Z,4.97
2019-03-25T18:16:04.631Z,4.83
2019-03-25T18:18:34.214Z,4.30
2019-03-25T18:21:04.286Z,4.30
2019-03-25T18:23:33.897Z,3.62
2019-03-25T18:26:04.192Z,4.50
2019-03-25T18:28:36.055Z,4.12
2019-03-25T18:31:05.740Z,5.03
2019-03-25T18:33:35.344Z,4.28
2019-03-25T18:36:05.037Z,4.00
2019-03-25T18:38:34.640Z,4.60
2019-03-25T18:41:04.394Z,4.17
2019-03-25T18:43:34.091Z,5.53
2019-03-25T18:46:03.823Z,5.12
2019-03-25T18:48:33.455Z,4.12
2019-03-25T18:51:05.665Z,4.92
2019-03-25T18:53:35.367Z,4.03
2019-03-25T18:56:05.142Z,4.90
2019-03-25T18:58:34.812Z,4.85
2019-03-25T19:01:04.503Z,4.17
2019-03-25T19:03:34.246Z,5.33
2019-03-25T19:06:04.127Z,4.35
2019-03-25T19:08:33.999Z,4.30
2019-03-25T19:11:03.614Z,4.90
2019-03-25T19:13:33.208Z,5.00
2019-03-25T19:16:04.328Z,4.58
2019-03-25T19:18:33.920Z,4.08
2019-03-25T19:21:03.611Z,4.00
2019-03-25T19:23:34.086Z,4.58
2019-03-25T19:26:03.727Z,4.72
2019-03-25T19:28:33.355Z,5.30
2019-03-25T19:31:02.957Z,4.90
2019-03-25T19:33:32.692Z,4.47
2019-03-25T19:36:02.477Z,4.90
2019-03-25T19:38:32.087Z,5.42
2019-03-25T19:41:04.169Z,6.00
2019-03-25T19:43:33.821Z,5.58
2019-03-25T19:46:03.911Z,4.87
2019-03-25T19:48:33.517Z,5.28
2019-03-25T19:51:07.198Z,5.45
2019-03-25T19:53:36.963Z,4.62
2019-03-25T19:56:06.661Z,6.30
2019-03-25T19:58:36.311Z,5.35
2019-03-25T20:01:05.915Z,12.20
2019-03-25T20:03:35.527Z,5.75
2019-03-25T20:06:05.183Z,4.83
2019-03-25T20:08:34.881Z,5.15
2019-03-25T20:11:04.623Z,5.35
2019-03-25T20:13:34.294Z,5.47
2019-03-25T20:16:03.985Z,5.78
2019-03-25T20:18:33.712Z,5.42
2019-03-25T20:21:03.390Z,4.55
2019-03-25T20:23:33.050Z,4.53
2019-03-25T20:26:02.661Z,3.95
2019-03-25T20:28:32.237Z,5.15
2019-03-25T20:31:01.857Z,4.97
2019-03-25T20:33:31.453Z,4.67
2019-03-25T20:36:01.193Z,4.90
2019-03-25T20:38:30.931Z,10.32
2019-03-25T20:41:00.565Z,6.03
2019-03-25T20:43:30.159Z,5.53
2019-03-25T20:45:59.781Z,4.78
2019-03-25T20:48:31.148Z,4.00
2019-03-25T20:51:00.736Z,5.37
2019-03-25T20:53:30.405Z,4.90
2019-03-25T20:55:59.940Z,5.87
2019-03-25T20:58:29.586Z,4.95
2019-03-25T21:00:59.247Z,5.05
2019-03-25T21:03:28.923Z,5.50
2019-03-25T21:05:58.847Z,4.55
2019-03-25T21:08:28.498Z,4.58
2019-03-25T21:10:58.066Z,5.08
2019-03-25T21:13:27.782Z,8.28
2019-03-25T21:15:57.489Z,4.97
2019-03-25T21:18:27.086Z,4.95
2019-03-25T21:20:56.743Z,7.00
2019-03-25T21:23:26.421Z,4.97
2019-03-25T21:25:56.018Z,5.30
2019-03-25T21:28:25.632Z,4.75
2019-03-25T21:30:55.312Z,4.00
2019-03-25T21:33:24.934Z,5.80
2019-03-25T21:35:54.473Z,4.90
2019-03-25T21:38:24.226Z,5.97
2019-03-25T21:40:54.318Z,5.00
2019-03-25T21:43:23.896Z,5.03
2019-03-25T21:45:55.955Z,5.03
2019-03-25T21:48:25.604Z,5.60
2019-03-25T21:50:55.244Z,4.70
2019-03-25T21:53:25.051Z,4.70
2019-03-25T21:55:54.767Z,4.60
2019-03-25T21:58:24.337Z,4.90
2019-03-25T22:00:54.078Z,3.85
2019-03-25T22:03:23.606Z,4.50
2019-03-25T22:05:53.226Z,4.17
2019-03-25T22:08:22.827Z,6.03
2019-03-25T22:10:52.433Z,4.75
2019-03-25T22:13:22.033Z,4.97
2019-03-25T22:15:51.650Z,5.62
2019-03-25T22:18:21.286Z,5.90
2019-03-25T22:20:50.891Z,5.67
2019-03-25T22:23:20.506Z,4.12
2019-03-25T22:25:50.107Z,5.90
2019-03-25T22:28:19.716Z,6.25
2019-03-25T22:30:49.331Z,5.58
2019-03-25T22:33:25.602Z,5.58
2019-03-25T22:35:50.284Z,6.15
2019-03-25T22:38:19.877Z,5.00
2019-03-25T22:40:49.546Z,5.87
2019-03-25T22:43:19.209Z,3.98
2019-03-25T22:45:49.591Z,4.70
2019-03-25T22:48:19.216Z,4.60
2019-03-25T22:50:48.852Z,4.10
2019-03-25T22:53:18.603Z,5.03
2019-03-25T22:55:48.226Z,4.25
2019-03-25T22:58:17.863Z,3.90
2019-03-25T23:00:47.540Z,3.67
2019-03-25T23:03:17.474Z,4.85
2019-03-25T23:05:47.186Z,4.87
2019-03-25T23:08:16.817Z,4.53
2019-03-25T23:10:46.414Z,4.72
2019-03-25T23:13:16.019Z,5.20
2019-03-25T23:15:45.696Z,3.85
2019-03-25T23:18:15.284Z,5.47
2019-03-25T23:20:44.967Z,4.37
2019-03-25T23:23:14.563Z,5.50
2019-03-25T23:25:44.181Z,5.58
2019-03-25T23:28:13.768Z,4.87
2019-03-25T23:30:43.495Z,6.40
2019-03-25T23:33:13.164Z,5.17
2019-03-25T23:35:42.771Z,4.47
2019-03-25T23:38:12.357Z,3.77
2019-03-25T23:40:41.966Z,4.60
2019-03-25T23:43:11.595Z,4.42
2019-03-25T23:45:41.396Z,4.95
2019-03-25T23:48:10.999Z,4.30
2019-03-25T23:50:40.648Z,4.17
2019-03-25T23:53:10.281Z,5.10
2019-03-25T23:55:39.849Z,3.52
2019-03-25T23:58:09.532Z,4.47
